GRZ544 Details

Departure: Denver International Airport (KDEN)
Arrival: Ted Stevens Anchorage International Airport (PANC)
Route: RIKKK4 FISAR BIL J13 GTF J569 DORSE 52N20 RIBIT AKTEX 59N40 JOH WITTI4


Current Weather Information
KDEN 190753Z 17006KT 10SM CLR 02/M04 A2992 RMK AO2 SLP105 T00171044
PANC 190753Z 00000KT 10SM BKN050 OVC120 04/03 A2939 RMK AO2 SLP954 T00390028 $